sensor_id;sensor_type;location;lat;lon;timestamp;pressure;altitude;pressure_sealevel;temperature;humidity
58295;BME280;45705;55.592;37.460;2023-04-26T00:02:10;97832.19;;;11.79;100.00
58295;BME280;45705;55.592;37.460;2023-04-26T00:04:37;97816.81;;;11.71;100.00
58295;BME280;45705;55.592;37.460;2023-04-26T00:07:03;97829.91;;;11.81;100.00
58295;BME280;45705;55.592;37.460;2023-04-26T00:09:29;97826.06;;;11.82;100.00
58295;BME280;45705;55.592;37.460;2023-04-26T00:11:55;97822.13;;;11.96;100.00
58295;BME280;45705;55.592;37.460;2023-04-26T00:14:21;97818.72;;;11.99;100.00
58295;BME280;45705;55.592;37.460;2023-04-26T00:16:46;97810.94;;;11.85;100.00
58295;BME280;45705;55.592;37.460;2023-04-26T00:19:12;97811.38;;;11.87;100.00
58295;BME280;45705;55.592;37.460;2023-04-26T00:21:38;97805.34;;;11.94;100.00
58295;BME280;45705;55.592;37.460;2023-04-26T00:24:04;97806.78;;;11.75;100.00
58295;BME280;45705;55.592;37.460;2023-04-26T00:26:30;97805.19;;;11.74;100.00
58295;BME280;45705;55.592;37.460;2023-04-26T00:28:56;97811.16;;;11.92;100.00
58295;BME280;45705;55.592;37.460;2023-04-26T00:31:22;97812.50;;;11.86;100.00
58295;BME280;45705;55.592;37.460;2023-04-26T00:33:48;97806.78;;;11.75;100.00
58295;BME280;45705;55.592;37.460;2023-04-26T00:36:14;97803.91;;;11.84;100.00
58295;BME280;45705;55.592;37.460;2023-04-26T00:38:44;97811.53;;;11.78;100.00
58295;BME280;45705;55.592;37.460;2023-04-26T00:41:10;97799.31;;;11.88;100.00
58295;BME280;45705;55.592;37.460;2023-04-26T00:43:36;97788.56;;;11.92;100.00
58295;BME280;45705;55.592;37.460;2023-04-26T00:46:02;97791.53;;;11.87;100.00
58295;BME280;45705;55.592;37.460;2023-04-26T00:48:28;97792.31;;;11.87;100.00
58295;BME280;45705;55.592;37.460;2023-04-26T00:50:54;97785.69;;;11.72;100.00
58295;BME280;45705;55.592;37.460;2023-04-26T00:53:20;97796.31;;;11.61;100.00
58295;BME280;45705;55.592;37.460;2023-04-26T00:55:46;97784.91;;;11.72;100.00
58295;BME280;45705;55.592;37.460;2023-04-26T00:58:13;97782.41;;;11.51;100.00
58295;BME280;45705;55.592;37.460;2023-04-26T01:00:39;97767.25;;;11.50;100.00
58295;BME280;45705;55.592;37.460;2023-04-26T01:03:04;97770.75;;;11.50;100.00
58295;BME280;45705;55.592;37.460;2023-04-26T01:05:30;97774.25;;;11.51;100.00
58295;BME280;45705;55.592;37.460;2023-04-26T01:07:56;97778.28;;;11.57;100.00
58295;BME280;45705;55.592;37.460;2023-04-26T01:10:24;97771.97;;;11.53;100.00
58295;BME280;45705;55.592;37.460;2023-04-26T01:12:50;97769.50;;;11.48;100.00
58295;BME280;45705;55.592;37.460;2023-04-26T01:15:16;97768.81;;;11.51;100.00
58295;BME280;45705;55.592;37.460;2023-04-26T01:17:45;97767.91;;;11.47;100.00
58295;BME280;45705;55.592;37.460;2023-04-26T01:20:12;97752.59;;;11.26;100.00
58295;BME280;45705;55.592;37.460;2023-04-26T01:22:38;97759.00;;;11.34;100.00
58295;BME280;45705;55.592;37.460;2023-04-26T01:25:04;97754.81;;;11.36;100.00
58295;BME280;45705;55.592;37.460;2023-04-26T01:27:34;97749.72;;;11.35;100.00
58295;BME280;45705;55.592;37.460;2023-04-26T01:30:00;97749.09;;;11.41;100.00
58295;BME280;45705;55.592;37.460;2023-04-26T01:32:26;97736.47;;;11.33;100.00
58295;BME280;45705;55.592;37.460;2023-04-26T01:34:52;97738.53;;;11.24;100.00
58295;BME280;45705;55.592;37.460;2023-04-26T01:37:18;97737.16;;;11.30;100.00
58295;BME280;45705;55.592;37.460;2023-04-26T01:39:43;97734.19;;;11.35;100.00
58295;BME280;45705;55.592;37.460;2023-04-26T01:42:10;97737.63;;;11.32;100.00
58295;BME280;45705;55.592;37.460;2023-04-26T01:44:36;97735.56;;;11.29;100.00
58295;BME280;45705;55.592;37.460;2023-04-26T01:47:02;97731.22;;;11.40;100.00
58295;BME280;45705;55.592;37.460;2023-04-26T01:49:28;97722.50;;;11.35;100.00
58295;BME280;45705;55.592;37.460;2023-04-26T01:51:54;97723.19;;;11.32;100.00
58295;BME280;45705;55.592;37.460;2023-04-26T01:54:20;97715.09;;;11.48;100.00
58295;BME280;45705;55.592;37.460;2023-04-26T01:56:45;97715.31;;;11.27;100.00
58295;BME280;45705;55.592;37.460;2023-04-26T01:59:11;97717.66;;;11.28;100.00
58295;BME280;45705;55.592;37.460;2023-04-26T02:01:37;97711.00;;;11.41;100.00
58295;BME280;45705;55.592;37.460;2023-04-26T02:04:03;97709.06;;;11.26;100.00
58295;BME280;45705;55.592;37.460;2023-04-26T02:06:29;97706.59;;;11.21;100.00
58295;BME280;45705;55.592;37.460;2023-04-26T02:08:56;97711.84;;;11.14;100.00
58295;BME280;45705;55.592;37.460;2023-04-26T02:11:22;97707.34;;;11.06;100.00
58295;BME280;45705;55.592;37.460;2023-04-26T02:13:50;97698.31;;;11.01;100.00
58295;BME280;45705;55.592;37.460;2023-04-26T02:16:19;97705.41;;;11.06;100.00
58295;BME280;45705;55.592;37.460;2023-04-26T02:18:45;97705.75;;;11.04;100.00
58295;BME280;45705;55.592;37.460;2023-04-26T02:21:11;97703.56;;;11.10;100.00
58295;BME280;45705;55.592;37.460;2023-04-26T02:23:37;97688.25;;;11.18;100.00
58295;BME280;45705;55.592;37.460;2023-04-26T02:26:03;97696.41;;;11.18;100.00
58295;BME280;45705;55.592;37.460;2023-04-26T02:28:29;97691.22;;;11.13;100.00
58295;BME280;45705;55.592;37.460;2023-04-26T02:30:55;97688.34;;;11.21;100.00
58295;BME280;45705;55.592;37.460;2023-04-26T02:33:22;97683.44;;;11.27;100.00
58295;BME280;45705;55.592;37.460;2023-04-26T02:35:48;97677.13;;;11.23;100.00
58295;BME280;45705;55.592;37.460;2023-04-26T02:38:14;97680.72;;;11.27;100.00
58295;BME280;45705;55.592;37.460;2023-04-26T02:40:40;97680.28;;;11.25;100.00
58295;BME280;45705;55.592;37.460;2023-04-26T02:43:06;97675.94;;;11.08;100.00
58295;BME280;45705;55.592;37.460;2023-04-26T02:45:32;97667.53;;;11.13;100.00
58295;BME280;45705;55.592;37.460;2023-04-26T02:47:58;97683.44;;;11.27;100.00
58295;BME280;45705;55.592;37.460;2023-04-26T02:50:23;97679.84;;;11.23;100.00
58295;BME280;45705;55.592;37.460;2023-04-26T02:52:50;97671.59;;;11.35;100.00
58295;BME280;45705;55.592;37.460;2023-04-26T02:55:15;97670.97;;;11.26;100.00
58295;BME280;45705;55.592;37.460;2023-04-26T02:57:41;97665.34;;;11.19;100.00
58295;BME280;45705;55.592;37.460;2023-04-26T03:00:07;97674.94;;;11.29;100.00
58295;BME280;45705;55.592;37.460;2023-04-26T03:02:34;97674.31;;;11.35;100.00
58295;BME280;45705;55.592;37.460;2023-04-26T03:05:00;97662.75;;;11.38;100.00
58295;BME280;45705;55.592;37.460;2023-04-26T03:07:29;97670.28;;;11.29;100.00
58295;BME280;45705;55.592;37.460;2023-04-26T03:09:55;97655.59;;;11.34;100.00
58295;BME280;45705;55.592;37.460;2023-04-26T03:12:22;97648.16;;;11.15;100.00
58295;BME280;45705;55.592;37.460;2023-04-26T03:14:47;97658.44;;;11.37;100.00
58295;BME280;45705;55.592;37.460;2023-04-26T03:17:13;97637.06;;;11.08;100.00
58295;BME280;45705;55.592;37.460;2023-04-26T03:19:39;97657.31;;;11.38;100.00
58295;BME280;45705;55.592;37.460;2023-04-26T03:22:05;97655.03;;;11.40;100.00
58295;BME280;45705;55.592;37.460;2023-04-26T03:24:31;97654.31;;;11.43;100.00
58295;BME280;45705;55.592;37.460;2023-04-26T03:26:57;97648.59;;;11.17;100.00
58295;BME280;45705;55.592;37.460;2023-04-26T03:29:23;97648.69;;;11.36;100.00
58295;BME280;45705;55.592;37.460;2023-04-26T03:31:48;97646.66;;;11.33;100.00
58295;BME280;45705;55.592;37.460;2023-04-26T03:34:14;97644.66;;;11.46;100.00
58295;BME280;45705;55.592;37.460;2023-04-26T03:36:40;97639.56;;;11.45;100.00
58295;BME280;45705;55.592;37.460;2023-04-26T03:39:06;97638.41;;;11.46;100.00
58295;BME280;45705;55.592;37.460;2023-04-26T03:41:33;97631.56;;;11.36;100.00
58295;BME280;45705;55.592;37.460;2023-04-26T03:44:03;97631.94;;;11.34;100.00
58295;BME280;45705;55.592;37.460;2023-04-26T03:46:28;97627.38;;;11.38;100.00
58295;BME280;45705;55.592;37.460;2023-04-26T03:48:54;97637.72;;;11.33;100.00
58295;BME280;45705;55.592;37.460;2023-04-26T03:51:20;97621.81;;;11.19;100.00
58295;BME280;45705;55.592;37.460;2023-04-26T03:53:46;97624.78;;;11.14;100.00
58295;BME280;45705;55.592;37.460;2023-04-26T03:56:13;97622.00;;;11.26;100.00
58295;BME280;45705;55.592;37.460;2023-04-26T03:58:39;97624.28;;;11.24;100.00
58295;BME280;45705;55.592;37.460;2023-04-26T04:01:05;97631.84;;;11.15;100.00
58295;BME280;45705;55.592;37.460;2023-04-26T04:03:30;97622.91;;;11.30;100.00
58295;BME280;45705;55.592;37.460;2023-04-26T04:05:56;97623.34;;;11.32;100.00
58295;BME280;45705;55.592;37.460;2023-04-26T04:08:22;97617.53;;;11.66;100.00
58295;BME280;45705;55.592;37.460;2023-04-26T04:10:48;97619.72;;;11.60;100.00
58295;BME280;45705;55.592;37.460;2023-04-26T04:13:14;97613.81;;;11.26;100.00
58295;BME280;45705;55.592;37.460;2023-04-26T04:15:40;97613.56;;;11.31;100.00
58295;BME280;45705;55.592;37.460;2023-04-26T04:18:06;97615.31;;;11.39;100.00
58295;BME280;45705;55.592;37.460;2023-04-26T04:20:31;97622.38;;;11.40;100.00
58295;BME280;45705;55.592;37.460;2023-04-26T04:22:58;97617.16;;;11.35;100.00
58295;BME280;45705;55.592;37.460;2023-04-26T04:25:27;97614.97;;;11.57;100.00
58295;BME280;45705;55.592;37.460;2023-04-26T04:27:56;97617.09;;;11.48;100.00
58295;BME280;45705;55.592;37.460;2023-04-26T04:30:22;97607.69;;;11.45;100.00
58295;BME280;45705;55.592;37.460;2023-04-26T04:32:48;97612.53;;;11.52;100.00
58295;BME280;45705;55.592;37.460;2023-04-26T04:35:15;97608.13;;;11.47;100.00
58295;BME280;45705;55.592;37.460;2023-04-26T04:37:41;97597.59;;;11.30;100.00
58295;BME280;45705;55.592;37.460;2023-04-26T04:40:08;97607.69;;;11.45;100.00
58295;BME280;45705;55.592;37.460;2023-04-26T04:42:35;97605.50;;;11.51;100.00
58295;BME280;45705;55.592;37.460;2023-04-26T04:45:05;97611.28;;;11.65;100.00
58295;BME280;45705;55.592;37.460;2023-04-26T04:47:32;97612.53;;;11.52;100.00
58295;BME280;45705;55.592;37.460;2023-04-26T04:49:58;97609.53;;;11.57;100.00
58295;BME280;45705;55.592;37.460;2023-04-26T04:52:25;97610.25;;;11.54;100.00
58295;BME280;45705;55.592;37.460;2023-04-26T04:54:50;97609.28;;;11.62;100.00
58295;BME280;45705;55.592;37.460;2023-04-26T04:57:16;97608.66;;;11.53;100.00
58295;BME280;45705;55.592;37.460;2023-04-26T04:59:45;97619.00;;;11.63;100.00
58295;BME280;45705;55.592;37.460;2023-04-26T05:02:11;97605.72;;;11.93;100.00
58295;BME280;45705;55.592;37.460;2023-04-26T05:04:37;97610.66;;;11.72;100.00
58295;BME280;45705;55.592;37.460;2023-04-26T05:07:04;97610.41;;;11.77;100.00
58295;BME280;45705;55.592;37.460;2023-04-26T05:09:32;97603.63;;;11.87;100.00
58295;BME280;45705;55.592;37.460;2023-04-26T05:11:58;97609.97;;;11.59;100.00
58295;BME280;45705;55.592;37.460;2023-04-26T05:14:24;97614.28;;;11.60;100.00
58295;BME280;45705;55.592;37.460;2023-04-26T05:16:49;97604.44;;;11.71;100.00
58295;BME280;45705;55.592;37.460;2023-04-26T05:19:16;97590.31;;;11.50;100.00
58295;BME280;45705;55.592;37.460;2023-04-26T05:21:41;97603.66;;;11.55;100.00
58295;BME280;45705;55.592;37.460;2023-04-26T05:24:08;97602.75;;;11.67;100.00
58295;BME280;45705;55.592;37.460;2023-04-26T05:26:34;97595.47;;;11.55;100.00
58295;BME280;45705;55.592;37.460;2023-04-26T05:29:19;97607.50;;;11.70;100.00
58295;BME280;45705;55.592;37.460;2023-04-26T05:32:05;97596.69;;;11.73;100.00
58295;BME280;45705;55.592;37.460;2023-04-26T05:34:40;97604.75;;;11.86;100.00
58295;BME280;45705;55.592;37.460;2023-04-26T05:37:09;97610.47;;;11.80;100.00
58295;BME280;45705;55.592;37.460;2023-04-26T05:39:34;97603.00;;;11.93;100.00
58295;BME280;45705;55.592;37.460;2023-04-26T05:42:00;97606.44;;;11.90;100.00
58295;BME280;45705;55.592;37.460;2023-04-26T05:44:28;97608.69;;;11.88;100.00
58295;BME280;45705;55.592;37.460;2023-04-26T05:46:54;97605.75;;;11.77;100.00
58295;BME280;45705;55.592;37.460;2023-04-26T05:49:20;97602.66;;;11.95;100.00
58295;BME280;45705;55.592;37.460;2023-04-26T05:51:46;97600.72;;;11.79;100.00
58295;BME280;45705;55.592;37.460;2023-04-26T05:54:12;97604.56;;;11.78;100.00
58295;BME280;45705;55.592;37.460;2023-04-26T05:56:38;97607.31;;;11.78;100.00
58295;BME280;45705;55.592;37.460;2023-04-26T05:59:04;97601.78;;;11.91;100.00
58295;BME280;45705;55.592;37.460;2023-04-26T06:01:32;97611.34;;;12.00;100.00
58295;BME280;45705;55.592;37.460;2023-04-26T06:03:58;97610.09;;;11.98;100.00
58295;BME280;45705;55.592;37.460;2023-04-26T06:06:26;97617.97;;;12.19;100.00
58295;BME280;45705;55.592;37.460;2023-04-26T06:08:52;97614.03;;;12.16;100.00
58295;BME280;45705;55.592;37.460;2023-04-26T06:11:18;97612.91;;;12.01;100.00
58295;BME280;45705;55.592;37.460;2023-04-26T06:13:44;97625.97;;;11.92;100.00
58295;BME280;45705;55.592;37.460;2023-04-26T06:16:10;97619.69;;;11.92;100.00
58295;BME280;45705;55.592;37.460;2023-04-26T06:18:36;97617.56;;;12.01;100.00
58295;BME280;45705;55.592;37.460;2023-04-26T06:21:02;97622.38;;;12.08;100.00
58295;BME280;45705;55.592;37.460;2023-04-26T06:23:28;97626.22;;;12.23;100.00
58295;BME280;45705;55.592;37.460;2023-04-26T06:25:53;97619.59;;;11.88;100.00
58295;BME280;45705;55.592;37.460;2023-04-26T06:28:19;97623.09;;;12.05;100.00
58295;BME280;45705;55.592;37.460;2023-04-26T06:30:45;97628.53;;;12.40;100.00
58295;BME280;45705;55.592;37.460;2023-04-26T06:33:11;97627.47;;;12.09;100.00
58295;BME280;45705;55.592;37.460;2023-04-26T06:35:39;97624.84;;;12.13;100.00
58295;BME280;45705;55.592;37.460;2023-04-26T06:38:06;97624.06;;;12.12;100.00
58295;BME280;45705;55.592;37.460;2023-04-26T06:40:32;97631.44;;;12.12;100.00
58295;BME280;45705;55.592;37.460;2023-04-26T06:42:58;97627.22;;;12.14;100.00
58295;BME280;45705;55.592;37.460;2023-04-26T06:45:36;97630.97;;;12.26;100.00
58295;BME280;45705;55.592;37.460;2023-04-26T06:48:02;97637.13;;;12.42;100.00
58295;BME280;45705;55.592;37.460;2023-04-26T06:50:29;97631.69;;;12.42;100.00
58295;BME280;45705;55.592;37.460;2023-04-26T06:52:55;97631.59;;;12.38;100.00
58295;BME280;45705;55.592;37.460;2023-04-26T06:55:21;97635.69;;;12.48;100.00
58295;BME280;45705;55.592;37.460;2023-04-26T06:57:46;97637.28;;;12.49;100.00
58295;BME280;45705;55.592;37.460;2023-04-26T07:00:12;97613.47;;;12.66;100.00
58295;BME280;45705;55.592;37.460;2023-04-26T07:02:39;97637.28;;;12.49;100.00
58295;BME280;45705;55.592;37.460;2023-04-26T07:05:05;97628.88;;;12.77;100.00
58295;BME280;45705;55.592;37.460;2023-04-26T07:07:31;97643.41;;;12.82;100.00
58295;BME280;45705;55.592;37.460;2023-04-26T07:09:57;97632.41;;;12.78;100.00
58295;BME280;45705;55.592;37.460;2023-04-26T07:12:22;97636.84;;;12.86;100.00
58295;BME280;45705;55.592;37.460;2023-04-26T07:14:48;97641.59;;;12.89;100.00
58295;BME280;45705;55.592;37.460;2023-04-26T07:17:14;97638.78;;;13.05;100.00
58295;BME280;45705;55.592;37.460;2023-04-26T07:19:39;97640.69;;;13.24;100.00
58295;BME280;45705;55.592;37.460;2023-04-26T07:22:05;97643.13;;;13.10;100.00
58295;BME280;45705;55.592;37.460;2023-04-26T07:24:31;97651.31;;;13.10;100.00
58295;BME280;45705;55.592;37.460;2023-04-26T07:26:56;97654.00;;;12.87;100.00
58295;BME280;45705;55.592;37.460;2023-04-26T07:29:22;97652.63;;;12.77;100.00
58295;BME280;45705;55.592;37.460;2023-04-26T07:31:48;97640.44;;;12.71;100.00
58295;BME280;45705;55.592;37.460;2023-04-26T07:34:14;97658.84;;;12.74;100.00
58295;BME280;45705;55.592;37.460;2023-04-26T07:36:39;97658.66;;;12.86;100.00
58295;BME280;45705;55.592;37.460;2023-04-26T07:39:05;97662.53;;;12.66;100.00
58295;BME280;45705;55.592;37.460;2023-04-26T07:41:33;97665.16;;;12.78;100.00
58295;BME280;45705;55.592;37.460;2023-04-26T07:43:59;97660.75;;;12.93;100.00
58295;BME280;45705;55.592;37.460;2023-04-26T07:46:24;97666.16;;;12.89;100.00
58295;BME280;45705;55.592;37.460;2023-04-26T07:48:50;97662.84;;;12.99;100.00
58295;BME280;45705;55.592;37.460;2023-04-26T07:51:16;97668.44;;;13.07;100.00
58295;BME280;45705;55.592;37.460;2023-04-26T07:53:42;97676.03;;;13.17;100.00
58295;BME280;45705;55.592;37.460;2023-04-26T07:56:07;97662.66;;;13.12;100.00
58295;BME280;45705;55.592;37.460;2023-04-26T07:58:34;97667.69;;;13.10;100.00
58295;BME280;45705;55.592;37.460;2023-04-26T08:01:01;97675.72;;;13.03;100.00
58295;BME280;45705;55.592;37.460;2023-04-26T08:03:27;97681.91;;;13.19;100.00
58295;BME280;45705;55.592;37.460;2023-04-26T08:05:53;97668.53;;;13.33;100.00
58295;BME280;45705;55.592;37.460;2023-04-26T08:08:20;97671.81;;;13.43;100.00
58295;BME280;45705;55.592;37.460;2023-04-26T08:10:46;97682.13;;;13.53;100.00
58295;BME280;45705;55.592;37.460;2023-04-26T08:13:12;97675.72;;;13.42;100.00
58295;BME280;45705;55.592;37.460;2023-04-26T08:15:38;97679.91;;;13.58;100.00
58295;BME280;45705;55.592;37.460;2023-04-26T08:18:04;97677.13;;;13.32;100.00
58295;BME280;45705;55.592;37.460;2023-04-26T08:20:30;97684.09;;;13.75;100.00
58295;BME280;45705;55.592;37.460;2023-04-26T08:22:57;97684.38;;;13.93;100.00
58295;BME280;45705;55.592;37.460;2023-04-26T08:25:24;97691.16;;;13.80;100.00
58295;BME280;45705;55.592;37.460;2023-04-26T08:27:50;97696.66;;;13.34;100.00
58295;BME280;45705;55.592;37.460;2023-04-26T08:30:17;97696.09;;;13.48;100.00
58295;BME280;45705;55.592;37.460;2023-04-26T08:32:44;97692.22;;;13.29;100.00
58295;BME280;45705;55.592;37.460;2023-04-26T08:35:11;97695.69;;;13.69;100.00
58295;BME280;45705;55.592;37.460;2023-04-26T08:37:37;97694.75;;;13.38;100.00
58295;BME280;45705;55.592;37.460;2023-04-26T08:40:07;97696.16;;;13.09;100.00
58295;BME280;45705;55.592;37.460;2023-04-26T08:42:38;97700.28;;;13.22;100.00
58295;BME280;45705;55.592;37.460;2023-04-26T08:45:06;97702.16;;;13.37;100.00
58295;BME280;45705;55.592;37.460;2023-04-26T08:47:57;97701.28;;;13.33;100.00
58295;BME280;45705;55.592;37.460;2023-04-26T08:50:27;97698.56;;;13.14;100.00
58295;BME280;45705;55.592;37.460;2023-04-26T08:52:54;97697.56;;;13.42;100.00
58295;BME280;45705;55.592;37.460;2023-04-26T08:55:21;97701.56;;;13.71;100.00
58295;BME280;45705;55.592;37.460;2023-04-26T08:57:48;97702.97;;;13.38;100.00
58295;BME280;45705;55.592;37.460;2023-04-26T09:00:15;97705.16;;;13.52;100.00
58295;BME280;45705;55.592;37.460;2023-04-26T09:02:46;97702.84;;;13.54;100.00
58295;BME280;45705;55.592;37.460;2023-04-26T09:05:12;97704.34;;;13.74;100.00
58295;BME280;45705;55.592;37.460;2023-04-26T09:07:43;97705.72;;;13.61;100.00
58295;BME280;45705;55.592;37.460;2023-04-26T09:10:11;97717.09;;;13.90;100.00
58295;BME280;45705;55.592;37.460;2023-04-26T09:12:37;97709.75;;;13.94;100.00
58295;BME280;45705;55.592;37.460;2023-04-26T09:15:04;97716.31;;;13.66;100.00
58295;BME280;45705;55.592;37.460;2023-04-26T09:17:33;97718.19;;;13.62;100.00
58295;BME280;45705;55.592;37.460;2023-04-26T09:20:16;97719.81;;;13.90;100.00
58295;BME280;45705;55.592;37.460;2023-04-26T09:22:42;97722.19;;;13.26;100.00
58295;BME280;45705;55.592;37.460;2023-04-26T09:25:08;97722.66;;;13.51;100.00
58295;BME280;45705;55.592;37.460;2023-04-26T09:27:39;97727.56;;;13.22;100.00
58295;BME280;45705;55.592;37.460;2023-04-26T09:30:13;97727.56;;;13.22;100.00
58295;BME280;45705;55.592;37.460;2023-04-26T09:33:00;97734.47;;;13.16;100.00
58295;BME280;45705;55.592;37.460;2023-04-26T09:35:35;97740.00;;;13.39;100.00
58295;BME280;45705;55.592;37.460;2023-04-26T09:38:05;97741.94;;;13.19;100.00
58295;BME280;45705;55.592;37.460;2023-04-26T09:40:37;97744.91;;;13.30;100.00
58295;BME280;45705;55.592;37.460;2023-04-26T09:43:05;97745.53;;;13.23;100.00
58295;BME280;45705;55.592;37.460;2023-04-26T09:45:33;97740.66;;;13.13;100.00
58295;BME280;45705;55.592;37.460;2023-04-26T09:51:18;97750.44;;;13.33;100.00
58295;BME280;45705;55.592;37.460;2023-04-26T09:53:48;97747.75;;;13.17;100.00
58295;BME280;45705;55.592;37.460;2023-04-26T09:56:18;97745.97;;;13.45;100.00
58295;BME280;45705;55.592;37.460;2023-04-26T10:01:13;97742.84;;;13.89;100.00
58295;BME280;45705;55.592;37.460;2023-04-26T10:03:39;97743.72;;;13.50;100.00
58295;BME280;45705;55.592;37.460;2023-04-26T10:06:07;97751.25;;;13.57;100.00
58295;BME280;45705;55.592;37.460;2023-04-26T10:08:33;97758.34;;;13.38;100.00
58295;BME280;45705;55.592;37.460;2023-04-26T10:11:02;97767.81;;;13.45;100.00
58295;BME280;45705;55.592;37.460;2023-04-26T10:13:30;97770.09;;;13.62;100.00
58295;BME280;45705;55.592;37.460;2023-04-26T10:15:57;97773.38;;;13.71;100.00
58295;BME280;45705;55.592;37.460;2023-04-26T10:18:23;97768.66;;;13.91;100.00
58295;BME280;45705;55.592;37.460;2023-04-26T10:20:51;97766.69;;;13.92;100.00
58295;BME280;45705;55.592;37.460;2023-04-26T10:23:19;97756.63;;;13.73;100.00
58295;BME280;45705;55.592;37.460;2023-04-26T10:25:46;97777.94;;;14.33;100.00
58295;BME280;45705;55.592;37.460;2023-04-26T10:28:12;97766.19;;;14.32;100.00
58295;BME280;45705;55.592;37.460;2023-04-26T10:30:54;97765.63;;;14.73;100.00
58295;BME280;45705;55.592;37.460;2023-04-26T10:33:21;97770.75;;;15.05;100.00
58295;BME280;45705;55.592;37.460;2023-04-26T10:36:11;97772.66;;;15.01;100.00
58295;BME280;45705;55.592;37.460;2023-04-26T10:38:40;97763.94;;;14.91;100.00
58295;BME280;45705;55.592;37.460;2023-04-26T10:41:35;97769.84;;;15.27;100.00
58295;BME280;45705;55.592;37.460;2023-04-26T10:44:38;97767.97;;;15.01;100.00
58295;BME280;45705;55.592;37.460;2023-04-26T10:47:21;97766.69;;;15.59;100.00
58295;BME280;45705;55.592;37.460;2023-04-26T10:49:47;97770.66;;;16.03;96.25
58295;BME280;45705;55.592;37.460;2023-04-26T10:52:15;97772.88;;;15.86;93.65
58295;BME280;45705;55.592;37.460;2023-04-26T10:57:13;97755.25;;;15.50;94.40
58295;BME280;45705;55.592;37.460;2023-04-26T11:02:55;97778.66;;;15.44;99.37
58295;BME280;45705;55.592;37.460;2023-04-26T11:05:49;97776.16;;;15.31;100.00
58295;BME280;45705;55.592;37.460;2023-04-26T11:08:18;97792.97;;;15.00;100.00
58295;BME280;45705;55.592;37.460;2023-04-26T11:10:52;97797.84;;;14.83;100.00
58295;BME280;45705;55.592;37.460;2023-04-26T11:13:21;97805.16;;;14.75;100.00
58295;BME280;45705;55.592;37.460;2023-04-26T11:15:51;97807.94;;;14.79;100.00
58295;BME280;45705;55.592;37.460;2023-04-26T11:18:18;97807.78;;;14.68;100.00
58295;BME280;45705;55.592;37.460;2023-04-26T11:20:44;97808.09;;;14.63;100.00
58295;BME280;45705;55.592;37.460;2023-04-26T11:23:10;97805.19;;;14.79;100.00
58295;BME280;45705;55.592;37.460;2023-04-26T11:25:38;97801.16;;;15.26;100.00
58295;BME280;45705;55.592;37.460;2023-04-26T11:28:04;97804.78;;;15.71;99.41
58295;BME280;45705;55.592;37.460;2023-04-26T11:30:31;97793.19;;;15.85;99.45
58295;BME280;45705;55.592;37.460;2023-04-26T11:33:01;97790.88;;;16.32;91.59
58295;BME280;45705;55.592;37.460;2023-04-26T11:35:28;97792.97;;;16.49;93.13
58295;BME280;45705;55.592;37.460;2023-04-26T11:37:58;97797.56;;;16.34;90.61
58295;BME280;45705;55.592;37.460;2023-04-26T11:40:30;97798.56;;;16.64;86.97
58295;BME280;45705;55.592;37.460;2023-04-26T11:43:06;97796.56;;;17.27;84.36
58295;BME280;45705;55.592;37.460;2023-04-26T11:45:34;97794.13;;;17.07;81.43
58295;BME280;45705;55.592;37.460;2023-04-26T11:48:06;97804.34;;;17.07;81.98
58295;BME280;45705;55.592;37.460;2023-04-26T11:50:33;97805.47;;;16.99;79.83
58295;BME280;45705;55.592;37.460;2023-04-26T11:53:03;97812.94;;;16.46;83.43
58295;BME280;45705;55.592;37.460;2023-04-26T11:55:30;97798.06;;;16.51;80.46
58295;BME280;45705;55.592;37.460;2023-04-26T11:58:15;97813.81;;;16.58;79.59
58295;BME280;45705;55.592;37.460;2023-04-26T12:00:58;97816.09;;;17.00;78.57
58295;BME280;45705;55.592;37.460;2023-04-26T12:03:31;97808.53;;;16.86;78.45
58295;BME280;45705;55.592;37.460;2023-04-26T12:06:05;97823.19;;;17.08;76.75
58295;BME280;45705;55.592;37.460;2023-04-26T12:08:31;97809.13;;;17.24;73.70
58295;BME280;45705;55.592;37.460;2023-04-26T12:10:59;97809.13;;;17.24;74.50
58295;BME280;45705;55.592;37.460;2023-04-26T12:13:28;97805.22;;;17.25;72.17
58295;BME280;45705;55.592;37.460;2023-04-26T12:15:53;97806.69;;;17.05;70.70
58295;BME280;45705;55.592;37.460;2023-04-26T12:18:19;97807.25;;;16.73;68.45
58295;BME280;45705;55.592;37.460;2023-04-26T12:20:45;97813.19;;;16.27;67.19
58295;BME280;45705;55.592;37.460;2023-04-26T12:23:14;97807.31;;;16.32;63.95
58295;BME280;45705;55.592;37.460;2023-04-26T12:25:51;97809.09;;;16.58;59.72
58295;BME280;45705;55.592;37.460;2023-04-26T12:28:17;97815.03;;;16.64;58.01
58295;BME280;45705;55.592;37.460;2023-04-26T12:30:43;97805.72;;;16.79;56.53
58295;BME280;45705;55.592;37.460;2023-04-26T12:33:08;97812.94;;;17.02;56.29
58295;BME280;45705;55.592;37.460;2023-04-26T12:35:34;97824.72;;;17.02;56.61
58295;BME280;45705;55.592;37.460;2023-04-26T12:38:00;97827.75;;;16.86;68.41
58295;BME280;45705;55.592;37.460;2023-04-26T12:40:27;97831.28;;;16.87;70.60
58295;BME280;45705;55.592;37.460;2023-04-26T12:42:53;97829.13;;;16.62;71.90
58295;BME280;45705;55.592;37.460;2023-04-26T12:45:22;97837.63;;;16.46;71.88
58295;BME280;45705;55.592;37.460;2023-04-26T12:47:48;97836.78;;;16.87;70.19
58295;BME280;45705;55.592;37.460;2023-04-26T12:50:15;97832.47;;;16.89;70.53
58295;BME280;45705;55.592;37.460;2023-04-26T12:52:42;97841.97;;;17.03;69.87
58295;BME280;45705;55.592;37.460;2023-04-26T12:55:12;97841.78;;;16.78;69.91